Time;durP1;ratioP1;P1;durP2;ratioP2;P2;SDS_P1;SDS_P2;PMS_P1;PMS_P2;Temp;Humidity;BMP_temperature;BMP_pressure;BME280_temperature;BME280_humidity;BME280_pressure;Samples;Min_cycle;Max_cycle;Signal;HPM_P1;HPM_P2
2022/09/29 00:00:55;;;;;;;14.33;12.70;;;6.20;99.90;;;;;;6308917;22;20490;-62
2022/09/29 00:03:23;;;;;;;14.30;11.33;;;6.20;99.90;;;;;;6309287;22;20850;-62
2022/09/29 00:05:54;;;;;;;13.57;11.67;;;6.20;99.90;;;;;;6309665;22;20410;-62
2022/09/29 00:08:24;;;;;;;12.67;11.07;;;6.20;99.90;;;;;;6308614;22;20753;-62
2022/09/29 00:10:51;;;;;;;13.43;11.67;;;6.20;99.90;;;;;;6308515;22;20423;-62
2022/09/29 00:13:21;;;;;;;12.33;11.03;;;6.20;99.90;;;;;;6309375;22;20736;-62
2022/09/29 00:15:58;;;;;;;12.77;11.37;;;6.20;99.90;;;;;;6309424;22;20391;-62
2022/09/29 00:18:31;;;;;;;12.30;11.00;;;6.10;99.90;;;;;;6308835;22;20421;-62
2022/09/29 00:21:00;;;;;;;11.57;10.43;;;6.10;99.90;;;;;;6309297;22;20860;-62
2022/09/29 00:23:28;;;;;;;13.20;11.60;;;6.00;99.90;;;;;;6308998;22;20534;-62
2022/09/29 00:26:10;;;;;;;12.17;10.97;;;6.00;99.90;;;;;;6308686;22;20422;-62
2022/09/29 00:28:46;;;;;;;11.70;10.50;;;6.00;99.90;;;;;;6308908;22;20461;-62
2022/09/29 00:31:13;;;;;;;12.63;11.43;;;5.90;99.90;;;;;;6308746;22;20707;-62
2022/09/29 00:33:41;;;;;;;15.13;12.80;;;5.90;99.90;;;;;;6309114;22;20449;-62
2022/09/29 00:36:12;;;;;;;13.13;10.90;;;5.90;99.90;;;;;;6309617;22;20397;-62
2022/09/29 00:38:40;;;;;;;12.30;11.00;;;5.90;99.90;;;;;;6308477;22;20419;-62
2022/09/29 00:41:13;;;;;;;14.27;11.10;;;5.90;99.90;;;;;;6308599;22;20747;-62
2022/09/29 00:43:58;;;;;;;13.60;12.20;;;5.90;99.90;;;;;;6309489;22;20420;-62
2022/09/29 00:46:33;;;;;;;12.60;11.30;;;5.90;99.90;;;;;;6308871;22;20439;-62
2022/09/29 00:49:04;;;;;;;12.27;10.90;;;5.90;99.90;;;;;;6309179;22;20422;-61
2022/09/29 00:51:35;;;;;;;13.63;11.40;;;5.90;99.90;;;;;;6308884;22;20425;-62
2022/09/29 00:54:03;;;;;;;13.23;11.83;;;5.90;99.90;;;;;;6308928;22;20416;-62
2022/09/29 00:56:34;;;;;;;14.97;12.50;;;5.80;99.90;;;;;;6308995;22;20417;-62
2022/09/29 00:59:07;;;;;;;13.10;11.70;;;5.80;99.90;;;;;;6308967;22;20489;-62
2022/09/29 01:01:34;;;;;;;12.37;11.07;;;5.70;99.90;;;;;;6308531;22;20416;-62
2022/09/29 01:04:07;;;;;;;13.23;10.40;;;5.70;99.90;;;;;;6307881;22;20482;-62
2022/09/29 01:06:39;;;;;;;12.43;11.10;;;5.70;99.90;;;;;;6309204;22;20417;-62
2022/09/29 01:09:09;;;;;;;12.53;11.23;;;5.70;99.90;;;;;;6310749;22;20538;-62
2022/09/29 01:11:36;;;;;;;12.30;10.77;;;5.70;99.90;;;;;;6311471;22;20429;-62
2022/09/29 01:14:09;;;;;;;14.47;11.57;;;5.60;99.90;;;;;;6310920;22;20427;-62
2022/09/29 01:16:38;;;;;;;13.17;11.47;;;5.60;99.90;;;;;;6310919;22;20759;-62
2022/09/29 01:19:08;;;;;;;16.10;11.70;;;5.70;99.90;;;;;;6310494;22;20385;-62
2022/09/29 01:21:44;;;;;;;17.83;12.50;;;5.60;99.90;;;;;;6311148;22;20794;-62
2022/09/29 01:24:46;;;;;;;14.00;11.63;;;5.50;99.90;;;;;;6310049;22;20436;-62
2022/09/29 01:27:29;;;;;;;12.83;11.10;;;5.50;99.90;;;;;;6311176;22;20715;-62
2022/09/29 01:30:14;;;;;;;16.60;13.37;;;5.50;99.90;;;;;;6310804;22;20453;-62
2022/09/29 01:33:12;;;;;;;13.47;12.07;;;5.40;99.90;;;;;;6310602;22;20513;-62
2022/09/29 01:35:49;;;;;;;11.47;10.27;;;5.40;99.90;;;;;;6301441;22;20724;-62
2022/09/29 01:38:31;;;;;;;13.40;12.00;;;5.30;99.90;;;;;;6310584;22;20693;-61
2022/09/29 01:41:07;;;;;;;16.17;14.40;;;5.30;99.90;;;;;;6310856;22;20424;-61
2022/09/29 01:43:38;;;;;;;13.87;11.27;;;5.30;99.90;;;;;;6310883;22;20419;-62
2022/09/29 01:46:11;;;;;;;12.97;11.57;;;5.20;99.90;;;;;;6311196;22;20754;-62
2022/09/29 01:48:45;;;;;;;13.40;11.50;;;5.10;99.90;;;;;;6309973;22;20447;-62
2022/09/29 01:51:16;;;;;;;12.70;11.40;;;5.10;99.90;;;;;;6310378;22;20493;-62
2022/09/29 01:53:48;;;;;;;16.20;12.67;;;5.10;99.90;;;;;;6311013;22;20427;-62
2022/09/29 01:56:22;;;;;;;17.33;12.27;;;5.00;99.90;;;;;;6310647;22;20395;-61
2022/09/29 01:58:56;;;;;;;13.83;10.73;;;5.00;99.90;;;;;;6310247;22;20391;-62
2022/09/29 02:01:27;;;;;;;13.53;11.97;;;5.10;99.90;;;;;;6310436;22;20395;-62
2022/09/29 02:04:00;;;;;;;13.43;12.03;;;5.00;99.90;;;;;;6310466;22;20698;-61
2022/09/29 02:06:35;;;;;;;13.00;11.50;;;5.00;99.90;;;;;;6310516;22;20454;-61
2022/09/29 02:09:04;;;;;;;22.03;14.50;;;5.00;99.90;;;;;;6310459;22;20793;-62
2022/09/29 02:11:35;;;;;;;15.27;13.17;;;5.00;99.90;;;;;;6310010;22;20914;-62
2022/09/29 02:14:07;;;;;;;21.43;13.50;;;5.00;99.90;;;;;;6310200;22;20438;-61
2022/09/29 02:16:40;;;;;;;26.23;14.10;;;5.00;99.90;;;;;;6310673;22;20695;-62
2022/09/29 02:19:14;;;;;;;30.40;13.67;;;5.00;99.90;;;;;;6309956;22;20515;-62
2022/09/29 02:21:42;;;;;;;33.87;13.17;;;5.00;99.90;;;;;;6309990;22;20418;-62
2022/09/29 02:24:10;;;;;;;17.10;12.80;;;5.00;99.90;;;;;;6310026;22;20498;-62
2022/09/29 02:26:39;;;;;;;20.57;10.83;;;5.00;99.90;;;;;;6310223;22;20523;-62
2022/09/29 02:29:08;;;;;;;21.90;12.80;;;5.00;99.90;;;;;;6310262;22;20451;-62
2022/09/29 02:31:38;;;;;;;15.17;11.00;;;4.90;99.90;;;;;;6310076;22;20863;-62
2022/09/29 02:34:08;;;;;;;15.67;11.47;;;4.90;99.90;;;;;;6309967;22;20459;-62
2022/09/29 02:36:45;;;;;;;20.30;11.30;;;4.90;99.90;;;;;;6309961;22;20412;-62
2022/09/29 02:39:21;;;;;;;27.23;11.13;;;4.90;99.90;;;;;;6310530;22;20415;-62
2022/09/29 02:42:00;;;;;;;25.17;12.67;;;4.80;99.90;;;;;;6309685;22;20417;-62
2022/09/29 02:44:46;;;;;;;21.30;12.67;;;4.80;99.90;;;;;;6309773;22;20420;-62
2022/09/29 02:47:33;;;;;;;22.00;12.03;;;4.80;99.90;;;;;;6309854;22;20421;-61
2022/09/29 02:50:25;;;;;;;17.17;10.07;;;4.70;99.90;;;;;;6310410;22;20538;-62
2022/09/29 02:53:03;;;;;;;15.10;10.90;;;4.70;99.90;;;;;;6305181;22;20420;-61
2022/09/29 02:55:38;;;;;;;16.20;12.30;;;4.60;99.90;;;;;;6310031;22;20849;-60
2022/09/29 02:58:35;;;;;;;15.33;10.73;;;4.60;99.90;;;;;;6309182;22;20386;-61
2022/09/29 03:01:06;;;;;;;13.67;11.57;;;4.70;99.90;;;;;;6310193;22;20397;-61
2022/09/29 03:03:33;;;;;;;15.60;11.50;;;4.70;99.90;;;;;;6309872;22;20396;-62
2022/09/29 03:06:02;;;;;;;30.80;12.73;;;4.70;99.90;;;;;;6309587;22;20424;-61
2022/09/29 03:08:32;;;;;;;33.00;11.90;;;4.70;99.90;;;;;;6309537;22;20395;-60
2022/09/29 03:11:00;;;;;;;21.37;12.07;;;4.70;99.90;;;;;;6309822;22;21004;-62
2022/09/29 03:13:27;;;;;;;17.97;12.50;;;4.60;99.90;;;;;;6309235;22;20456;-61
2022/09/29 03:15:54;;;;;;;13.70;11.20;;;4.60;99.90;;;;;;6309748;22;20731;-61
2022/09/29 03:18:23;;;;;;;13.13;11.10;;;4.60;99.90;;;;;;6309546;22;20395;-61
2022/09/29 03:20:53;;;;;;;15.30;11.97;;;4.60;99.90;;;;;;6309559;22;20772;-61
2022/09/29 03:23:22;;;;;;;17.57;12.83;;;4.60;99.90;;;;;;6309714;22;20391;-61
2022/09/29 03:25:49;;;;;;;13.90;11.60;;;4.60;99.90;;;;;;6309325;22;20907;-62
2022/09/29 03:28:17;;;;;;;22.63;10.87;;;4.60;99.90;;;;;;6309335;22;20427;-62
2022/09/29 03:30:45;;;;;;;23.03;9.90;;;4.60;99.90;;;;;;6309691;22;20735;-62
2022/09/29 03:33:12;;;;;;;15.07;9.63;;;4.60;99.90;;;;;;6309069;22;20402;-61
2022/09/29 03:35:39;;;;;;;12.07;10.73;;;4.60;99.90;;;;;;6309730;22;20656;-62
2022/09/29 03:38:09;;;;;;;15.40;10.23;;;4.70;99.90;;;;;;6309523;22;20416;-62
2022/09/29 03:40:38;;;;;;;31.13;11.97;;;4.70;99.90;;;;;;6309263;22;20416;-62
2022/09/29 03:43:05;;;;;;;23.33;11.37;;;4.70;99.90;;;;;;6309614;22;20423;-61
2022/09/29 03:45:32;;;;;;;30.70;12.00;;;4.70;99.90;;;;;;6309099;22;20449;-61
2022/09/29 03:47:59;;;;;;;26.43;10.13;;;4.60;99.90;;;;;;6309548;22;20396;-61
2022/09/29 03:50:27;;;;;;;16.73;10.70;;;4.50;99.90;;;;;;6309031;22;20419;-62
2022/09/29 03:52:54;;;;;;;21.93;10.73;;;4.40;99.90;;;;;;6309282;22;20409;-62
2022/09/29 03:55:22;;;;;;;14.30;9.67;;;4.40;99.90;;;;;;6309677;22;20685;-60
2022/09/29 03:57:50;;;;;;;21.23;10.80;;;4.40;99.90;;;;;;6309752;22;20876;-62
2022/09/29 04:00:18;;;;;;;21.30;10.27;;;4.30;99.90;;;;;;6308018;22;20412;-61
2022/09/29 04:02:45;;;;;;;23.83;9.93;;;4.30;99.90;;;;;;6308962;22;20413;-60
2022/09/29 04:05:12;;;;;;;17.53;10.87;;;4.30;99.90;;;;;;6309423;22;20413;-62
2022/09/29 04:07:42;;;;;;;13.50;10.30;;;4.20;99.90;;;;;;6309721;22;20527;-61
2022/09/29 04:10:10;;;;;;;12.80;9.20;;;4.20;99.90;;;;;;6309174;22;20548;-62
2022/09/29 04:12:37;;;;;;;20.73;11.17;;;4.20;99.90;;;;;;6308808;22;20430;-61
2022/09/29 04:15:07;;;;;;;22.63;10.90;;;4.20;99.90;;;;;;6308974;22;20395;-61
2022/09/29 04:17:34;;;;;;;34.37;13.30;;;4.20;99.90;;;;;;6309330;22;20483;-61
2022/09/29 04:20:02;;;;;;;17.93;10.77;;;4.20;99.90;;;;;;6308719;22;20489;-61
2022/09/29 04:22:29;;;;;;;26.57;13.40;;;4.20;99.90;;;;;;6308890;22;20401;-62
2022/09/29 04:24:57;;;;;;;28.67;12.20;;;4.20;99.90;;;;;;6308991;22;20862;-61
2022/09/29 04:27:24;;;;;;;15.57;10.63;;;4.20;99.90;;;;;;6309075;22;20450;-62
2022/09/29 04:29:51;;;;;;;14.90;11.27;;;4.20;99.90;;;;;;6308614;22;20465;-62
2022/09/29 04:32:20;;;;;;;19.10;13.30;;;4.20;99.90;;;;;;6309069;22;20391;-62
2022/09/29 04:34:48;;;;;;;15.20;12.17;;;4.20;99.90;;;;;;6308879;22;20474;-62
2022/09/29 04:37:16;;;;;;;13.77;11.43;;;4.20;99.90;;;;;;6309410;22;20421;-62
2022/09/29 04:39:43;;;;;;;23.27;11.13;;;4.30;99.90;;;;;;6308936;22;20436;-62
2022/09/29 04:42:10;;;;;;;58.60;13.73;;;4.30;99.90;;;;;;6310137;22;20416;-62
2022/09/29 04:44:38;;;;;;;37.17;12.03;;;4.30;99.90;;;;;;6310934;22;20842;-62
2022/09/29 04:47:05;;;;;;;26.90;10.70;;;4.20;99.90;;;;;;6311718;22;20497;-62
2022/09/29 04:49:34;;;;;;;28.67;11.77;;;4.10;99.90;;;;;;6309942;22;20414;-62
2022/09/29 04:52:01;;;;;;;14.10;9.67;;;4.10;99.90;;;;;;6311573;22;20398;-62
2022/09/29 04:54:31;;;;;;;11.77;10.27;;;4.00;99.90;;;;;;6310285;22;20394;-62
2022/09/29 04:57:00;;;;;;;11.63;10.43;;;4.10;99.90;;;;;;6310582;22;20474;-62
2022/09/29 04:59:30;;;;;;;11.53;10.33;;;4.00;99.90;;;;;;6308243;22;20853;-62
2022/09/29 05:01:58;;;;;;;13.07;9.70;;;4.00;99.90;;;;;;6309812;22;20641;-62
2022/09/29 05:04:25;;;;;;;14.00;11.33;;;4.00;99.90;;;;;;6310578;22;20470;-62
2022/09/29 05:06:55;;;;;;;14.13;11.60;;;4.00;99.90;;;;;;6310667;22;20849;-63
2022/09/29 05:09:22;;;;;;;15.40;12.10;;;4.00;99.90;;;;;;6310291;22;20437;-62
2022/09/29 05:11:49;;;;;;;14.13;12.37;;;4.10;99.90;;;;;;6310852;22;20415;-62
2022/09/29 05:14:16;;;;;;;14.27;12.17;;;4.00;99.90;;;;;;6310590;22;20877;-63
2022/09/29 05:16:43;;;;;;;12.93;11.13;;;4.00;99.90;;;;;;6311525;22;20507;-62
2022/09/29 05:19:11;;;;;;;12.70;11.17;;;3.90;99.90;;;;;;6311032;22;20416;-63
2022/09/29 05:21:38;;;;;;;13.30;11.23;;;3.90;99.90;;;;;;6310808;22;20391;-62
2022/09/29 05:24:07;;;;;;;14.20;11.57;;;4.00;99.90;;;;;;6310403;22;20899;-62
2022/09/29 05:26:34;;;;;;;12.87;11.17;;;4.00;99.90;;;;;;6310708;22;20401;-62
2022/09/29 05:29:01;;;;;;;12.93;11.23;;;4.10;99.90;;;;;;6309953;22;20423;-62
2022/09/29 05:31:32;;;;;;;12.20;10.33;;;4.00;99.90;;;;;;6309965;22;20547;-62
2022/09/29 05:33:59;;;;;;;12.80;11.50;;;3.90;99.90;;;;;;6310812;22;20395;-62
2022/09/29 05:36:26;;;;;;;13.40;11.07;;;3.90;99.90;;;;;;6310427;22;20716;-64
2022/09/29 05:38:55;;;;;;;12.80;10.33;;;3.90;99.90;;;;;;6310467;22;20504;-64
2022/09/29 05:41:23;;;;;;;12.10;10.40;;;4.00;99.90;;;;;;6310095;22;20854;-64
2022/09/29 05:43:52;;;;;;;12.30;10.60;;;4.00;99.90;;;;;;6310343;22;20697;-64
2022/09/29 05:46:19;;;;;;;12.60;11.30;;;4.00;99.90;;;;;;6309780;22;20723;-64
2022/09/29 05:48:47;;;;;;;12.53;10.63;;;4.00;99.90;;;;;;6309849;22;20523;-64
2022/09/29 05:51:16;;;;;;;12.87;11.30;;;4.00;99.90;;;;;;6309857;22;20478;-64
2022/09/29 05:53:43;;;;;;;13.57;10.87;;;4.00;99.90;;;;;;6309691;22;20420;-63
2022/09/29 05:56:13;;;;;;;13.70;10.30;;;4.00;99.90;;;;;;6309514;22;20448;-64
2022/09/29 05:58:44;;;;;;;14.17;11.23;;;4.00;99.90;;;;;;6310209;22;20450;-64
2022/09/29 06:01:14;;;;;;;12.33;10.93;;;4.10;99.90;;;;;;6310623;22;20414;-64
2022/09/29 06:03:42;;;;;;;15.93;12.30;;;4.10;99.90;;;;;;6310738;22;20397;-64
2022/09/29 06:06:10;;;;;;;15.67;11.60;;;4.10;99.90;;;;;;6310027;22;20425;-63
2022/09/29 06:08:38;;;;;;;12.83;10.13;;;4.10;99.90;;;;;;6310247;22;20815;-63
2022/09/29 06:11:09;;;;;;;13.03;10.40;;;4.20;99.90;;;;;;6310530;22;20551;-64
2022/09/29 06:13:40;;;;;;;15.37;12.17;;;4.30;99.90;;;;;;6310290;22;20489;-63
2022/09/29 06:16:11;;;;;;;13.67;11.00;;;4.30;99.90;;;;;;6310103;22;20417;-64
2022/09/29 06:18:39;;;;;;;20.13;11.43;;;4.40;99.90;;;;;;6310237;22;20829;-63
2022/09/29 06:21:10;;;;;;;12.07;10.83;;;4.60;99.90;;;;;;6309938;22;20499;-64
2022/09/29 06:23:38;;;;;;;12.67;9.67;;;4.60;99.90;;;;;;6310003;22;20413;-64
2022/09/29 06:26:08;;;;;;;12.10;10.80;;;4.70;99.90;;;;;;6311022;22;20387;-64
2022/09/29 06:28:36;;;;;;;14.67;10.10;;;4.70;99.90;;;;;;6309621;22;20514;-64
2022/09/29 06:31:06;;;;;;;11.87;10.57;;;4.80;99.90;;;;;;6310269;22;20447;-64
2022/09/29 06:33:36;;;;;;;12.93;10.50;;;5.00;99.90;;;;;;6310506;22;20689;-64
2022/09/29 06:38:52;;;;;;;13.43;11.47;;;5.30;99.90;;;;;;6308595;22;20931;-64
2022/09/29 06:41:20;;;;;;;12.70;10.93;;;5.50;99.90;;;;;;6310258;22;20744;-64
2022/09/29 06:43:50;;;;;;;13.77;11.10;;;5.70;99.90;;;;;;6310215;22;20394;-64
2022/09/29 06:46:19;;;;;;;12.43;11.23;;;5.80;99.90;;;;;;6309914;22;20522;-64
2022/09/29 06:48:48;;;;;;;12.47;11.17;;;6.00;99.90;;;;;;6309803;22;20824;-64
2022/09/29 06:51:15;;;;;;;24.60;11.80;;;6.10;99.90;;;;;;6309996;22;20441;-64
2022/09/29 06:53:42;;;;;;;11.50;10.30;;;6.40;99.90;;;;;;6310102;22;20391;-64
2022/09/29 06:56:10;;;;;;;10.97;9.60;;;6.50;99.90;;;;;;6310046;22;20427;-64
2022/09/29 06:58:38;;;;;;;9.10;8.10;;;6.50;99.90;;;;;;6309186;22;20692;-64
2022/09/29 07:01:06;;;;;;;11.53;10.03;;;6.70;99.90;;;;;;6309401;22;20387;-64
2022/09/29 07:03:34;;;;;;;10.83;9.70;;;7.00;99.90;;;;;;6309983;22;20427;-64
2022/09/29 07:06:06;;;;;;;9.23;8.23;;;7.20;99.90;;;;;;6310111;22;20412;-64
2022/09/29 07:08:35;;;;;;;13.70;9.43;;;7.30;99.90;;;;;;6309718;22;20451;-64
2022/09/29 07:11:07;;;;;;;9.60;8.70;;;7.30;99.90;;;;;;6309769;22;20444;-64
2022/09/29 07:13:36;;;;;;;9.80;8.90;;;7.70;99.90;;;;;;6310088;22;20420;-64
2022/09/29 07:16:08;;;;;;;10.93;9.83;;;7.80;99.90;;;;;;6309545;22;20667;-64
2022/09/29 07:18:36;;;;;;;14.40;12.90;;;7.90;99.90;;;;;;6309901;22;20418;-64
2022/09/29 07:21:09;;;;;;;13.43;12.07;;;8.50;99.90;;;;;;6309070;22;20772;-64
2022/09/29 07:23:41;;;;;;;14.97;13.47;;;8.90;99.90;;;;;;6310081;22;20809;-64
2022/09/29 07:26:11;;;;;;;10.93;9.93;;;9.20;99.90;;;;;;6309292;22;20494;-64
2022/09/29 07:28:38;;;;;;;16.87;15.10;;;9.00;99.90;;;;;;6309646;22;20420;-64
2022/09/29 07:31:07;;;;;;;13.53;11.47;;;9.30;99.90;;;;;;6308663;22;20419;-64
2022/09/29 07:33:35;;;;;;;13.40;12.03;;;9.50;99.90;;;;;;6309379;22;20390;-64
2022/09/29 07:36:04;;;;;;;11.20;10.00;;;9.80;99.90;;;;;;6309840;22;20422;-64
2022/09/29 07:38:32;;;;;;;11.20;10.20;;;10.10;99.90;;;;;;6308307;22;20391;-64
2022/09/29 07:41:01;;;;;;;10.47;9.37;;;10.20;99.90;;;;;;6309152;22;20473;-64
2022/09/29 07:43:29;;;;;;;10.20;9.30;;;10.40;99.90;;;;;;6309180;22;20391;-64
2022/09/29 07:45:56;;;;;;;9.80;8.80;;;10.60;99.90;;;;;;6309582;22;20416;-64
2022/09/29 07:48:24;;;;;;;10.23;9.23;;;10.90;99.90;;;;;;6309428;22;20465;-65
2022/09/29 07:50:52;;;;;;;10.13;8.43;;;10.90;99.90;;;;;;6307629;22;20418;-65
2022/09/29 07:53:22;;;;;;;8.90;8.00;;;10.90;99.90;;;;;;6307597;22;20577;-64
2022/09/29 07:55:49;;;;;;;8.70;7.90;;;11.40;99.90;;;;;;6308101;22;20418;-64
2022/09/29 07:58:16;;;;;;;10.87;9.77;;;11.40;99.90;;;;;;6307154;22;20481;-64
2022/09/29 08:00:44;;;;;;;10.20;9.20;;;11.60;99.90;;;;;;6306820;22;20394;-64
2022/09/29 08:03:12;;;;;;;9.43;8.63;;;11.70;99.90;;;;;;6307375;22;20416;-64
2022/09/29 08:05:42;;;;;;;9.50;8.20;;;11.80;99.90;;;;;;6306624;22;20417;-64
2022/09/29 08:08:10;;;;;;;8.73;7.93;;;11.90;99.90;;;;;;6307361;22;20394;-64
2022/09/29 08:10:38;;;;;;;9.17;8.23;;;11.90;99.90;;;;;;6307829;22;20546;-65
2022/09/29 08:13:06;;;;;;;11.37;9.30;;;12.20;99.90;;;;;;6307860;22;20696;-65
2022/09/29 08:15:33;;;;;;;9.03;8.23;;;12.20;99.90;;;;;;6308080;22;20412;-65
2022/09/29 08:18:00;;;;;;;9.47;8.57;;;12.60;99.90;;;;;;6308531;22;20438;-65
2022/09/29 08:20:36;;;;;;;11.33;8.87;;;12.60;99.90;;;;;;6308761;22;20498;-65
2022/09/29 08:23:05;;;;;;;10.03;9.03;;;12.70;99.90;;;;;;6308498;22;20899;-65
2022/09/29 08:25:34;;;;;;;8.87;8.07;;;12.80;99.90;;;;;;6309302;22;20447;-65
2022/09/29 08:28:02;;;;;;;10.87;9.10;;;12.80;99.90;;;;;;6309502;22;20420;-65
2022/09/29 08:30:30;;;;;;;9.70;8.70;;;13.20;99.90;;;;;;6308959;22;20418;-65
2022/09/29 08:32:57;;;;;;;11.53;8.40;;;13.30;99.90;;;;;;6309698;22;20420;-65
2022/09/29 08:35:27;;;;;;;10.97;9.90;;;13.60;1.00;;;;;;6309286;22;20477;-65
2022/09/29 08:37:57;;;;;;;10.07;9.07;;;13.70;1.00;;;;;;6309558;22;20394;-65
2022/09/29 08:40:28;;;;;;;9.47;8.67;;;13.90;99.90;;;;;;6308343;22;20420;-65
2022/09/29 08:43:10;;;;;;;9.80;8.90;;;14.10;1.00;;;;;;6309124;22;20494;-64
2022/09/29 08:45:41;;;;;;;9.30;8.50;;;14.30;99.90;;;;;;6309660;22;20703;-64
2022/09/29 08:48:15;;;;;;;8.80;8.10;;;14.40;99.90;;;;;;6308837;22;20416;-64
2022/09/29 08:50:46;;;;;;;8.80;8.10;;;14.60;1.00;;;;;;6308749;22;20416;-64
2022/09/29 08:53:18;;;;;;;9.80;8.90;;;14.50;99.90;;;;;;6309487;22;20858;-64
2022/09/29 08:55:51;;;;;;;10.37;9.40;;;14.90;99.90;;;;;;6308334;22;20451;-63
2022/09/29 08:58:20;;;;;;;9.80;8.80;;;15.10;17.50;;;;;;6308881;22;20386;-63
2022/09/29 09:01:02;;;;;;;9.53;8.73;;;15.40;1.00;;;;;;6308740;22;20915;-63
2022/09/29 09:04:19;;;;;;;9.03;8.17;;;15.40;1.00;;;;;;6308830;22;20418;-63
2022/09/29 09:07:01;;;;;;;9.97;9.17;;;15.60;99.90;;;;;;6308171;22;20424;-63
2022/09/29 09:09:58;;;;;;;8.90;7.97;;;15.80;1.00;;;;;;6308330;22;20416;-63
2022/09/29 09:12:43;;;;;;;8.70;7.90;;;15.80;99.90;;;;;;6304897;22;20488;-63
2022/09/29 09:15:53;;;;;;;8.93;8.13;;;16.10;1.00;;;;;;6309542;22;20422;-64
2022/09/29 09:18:43;;;;;;;8.07;7.33;;;16.10;99.90;;;;;;6307969;22;20502;-63
2022/09/29 09:21:24;;;;;;;9.40;7.83;;;16.60;1.00;;;;;;6264455;22;20448;-63
2022/09/29 09:23:55;;;;;;;9.80;7.57;;;16.60;99.90;;;;;;6308560;22;20448;-63
2022/09/29 09:26:32;;;;;;;7.57;6.80;;;16.90;99.90;;;;;;6309282;22;20420;-63
2022/09/29 09:29:04;;;;;;;7.97;7.17;;;17.30;99.90;;;;;;6310934;22;20823;-63
2022/09/29 09:31:39;;;;;;;7.97;7.20;;;17.50;99.90;;;;;;6311076;22;20505;-63
2022/09/29 09:34:14;;;;;;;7.90;7.20;;;17.70;99.90;;;;;;6310988;22;20411;-63
2022/09/29 09:36:45;;;;;;;7.30;6.73;;;17.80;99.90;;;;;;6311062;22;20864;-63
2022/09/29 09:39:18;;;;;;;8.70;7.40;;;18.00;99.90;;;;;;6310667;22;20515;-63
2022/09/29 09:41:49;;;;;;;7.53;6.83;;;18.30;99.90;;;;;;6311114;22;20412;-63
2022/09/29 09:44:19;;;;;;;8.27;7.47;;;18.50;99.90;;;;;;6310101;22;20420;-63
2022/09/29 09:46:52;;;;;;;7.70;7.00;;;17.50;99.90;;;;;;6310553;22;20687;-64
2022/09/29 09:49:23;;;;;;;7.70;7.00;;;17.10;99.90;;;;;;6311143;22;20674;-64
2022/09/29 09:51:56;;;;;;;7.60;7.00;;;16.40;99.90;;;;;;6311003;22;20443;-64
2022/09/29 09:54:30;;;;;;;7.70;6.90;;;16.00;99.90;;;;;;6308619;22;20718;-64
2022/09/29 09:57:38;;;;;;;6.70;6.10;;;15.60;99.90;;;;;;6310886;22;20416;-64
2022/09/29 10:00:12;;;;;;;7.73;6.57;;;15.00;99.90;;;;;;6311154;22;20390;-64
2022/09/29 10:02:44;;;;;;;7.97;6.80;;;14.30;99.90;;;;;;6310776;22;20864;-64
2022/09/29 10:05:13;;;;;;;7.40;6.70;;;14.20;99.90;;;;;;6310752;22;20469;-64
2022/09/29 10:07:41;;;;;;;9.60;5.70;;;14.10;99.90;;;;;;6310926;22;20818;-63
2022/09/29 10:10:21;;;;;;;8.20;6.00;;;14.00;99.90;;;;;;6309994;22;20412;-63
2022/09/29 10:12:52;;;;;;;7.10;6.40;;;14.10;99.90;;;;;;6310414;22;20422;-63
2022/09/29 10:15:28;;;;;;;7.00;6.30;;;13.90;99.90;;;;;;6310083;22;20816;-63
2022/09/29 10:18:04;;;;;;;7.87;5.97;;;14.10;99.90;;;;;;6310346;22;20386;-63
2022/09/29 10:20:40;;;;;;;7.70;6.00;;;14.20;99.90;;;;;;6308353;22;20744;-63
2022/09/29 10:23:24;;;;;;;6.00;5.40;;;14.50;99.90;;;;;;6308527;22;20505;-63
2022/09/29 10:25:59;;;;;;;5.90;5.40;;;15.40;99.90;;;;;;6308441;22;20446;-63
2022/09/29 10:28:30;;;;;;;6.10;5.50;;;15.80;99.90;;;;;;6309862;22;20416;-63
2022/09/29 10:30:57;;;;;;;6.67;6.07;;;15.70;99.90;;;;;;6309161;22;20882;-64
2022/09/29 10:33:28;;;;;;;5.90;5.30;;;16.20;99.90;;;;;;6310446;22;20420;-64
2022/09/29 10:36:10;;;;;;;5.67;5.17;;;17.00;99.90;;;;;;6310023;22;20426;-64
2022/09/29 10:38:46;;;;;;;5.43;4.93;;;17.40;99.90;;;;;;6308829;22;20442;-64
2022/09/29 10:41:13;;;;;;;5.87;5.37;;;17.10;99.90;;;;;;6307530;22;21494;-64
2022/09/29 10:43:42;;;;;;;10.63;6.30;;;16.90;99.90;;;;;;6307310;22;20394;-64
2022/09/29 10:46:48;;;;;;;8.83;6.67;;;16.40;99.90;;;;;;6308212;22;20420;-64
2022/09/29 10:49:18;;;;;;;8.27;5.97;;;16.50;99.90;;;;;;6308932;22;20702;-64
2022/09/29 10:51:54;;;;;;;6.50;5.70;;;16.60;99.90;;;;;;6309680;22;20447;-64
2022/09/29 10:54:26;;;;;;;5.90;4.83;;;16.70;99.90;;;;;;6310035;22;20491;-64
2022/09/29 10:56:55;;;;;;;7.60;5.80;;;16.20;99.90;;;;;;6308976;22;20423;-64
2022/09/29 10:59:24;;;;;;;6.97;5.90;;;15.80;99.90;;;;;;6309283;22;20747;-64
2022/09/29 11:01:54;;;;;;;5.43;5.03;;;15.40;99.90;;;;;;6309315;22;20423;-63
2022/09/29 11:04:26;;;;;;;6.17;5.10;;;15.30;99.90;;;;;;6308935;22;20696;-63
2022/09/29 11:06:59;;;;;;;5.00;4.50;;;16.00;99.90;;;;;;6309733;22;20511;-64
2022/09/29 11:09:39;;;;;;;6.10;4.80;;;16.20;99.90;;;;;;6308128;22;20444;-63
2022/09/29 11:12:22;;;;;;;4.53;4.13;;;16.40;99.90;;;;;;6309799;22;20948;-64
2022/09/29 11:14:49;;;;;;;3.90;3.50;;;16.30;99.90;;;;;;6309050;22;20413;-64
2022/09/29 11:17:25;;;;;;;3.67;3.33;;;16.10;99.90;;;;;;6307445;22;20462;-64
2022/09/29 11:19:57;;;;;;;8.33;4.77;;;15.80;99.90;;;;;;6308094;22;20699;-64
2022/09/29 11:22:53;;;;;;;4.63;4.17;;;15.40;99.90;;;;;;6309115;22;20477;-64
2022/09/29 11:25:43;;;;;;;4.50;3.83;;;15.10;99.90;;;;;;6295494;22;20415;-64
2022/09/29 11:28:43;;;;;;;6.20;3.30;;;14.50;99.90;;;;;;6308492;22;20391;-64
2022/09/29 11:31:23;;;;;;;4.13;3.83;;;14.30;99.90;;;;;;6227221;22;20420;-64
2022/09/29 11:34:02;;;;;;;6.77;4.27;;;14.10;99.90;;;;;;6309843;22;20510;-64
2022/09/29 11:36:41;;;;;;;4.40;4.00;;;13.70;99.90;;;;;;6309794;22;20877;-64
2022/09/29 11:39:34;;;;;;;5.40;4.90;;;13.70;99.90;;;;;;6308728;22;20416;-63
2022/09/29 11:42:13;;;;;;;6.40;5.57;;;13.80;99.90;;;;;;6309099;22;20412;-63
2022/09/29 11:44:57;;;;;;;6.30;5.50;;;14.00;99.90;;;;;;6308145;22;20896;-63
2022/09/29 11:47:51;;;;;;;6.17;5.57;;;14.20;99.90;;;;;;6307570;22;20428;-63
2022/09/29 11:50:28;;;;;;;7.00;4.70;;;14.30;99.90;;;;;;6308222;22;20462;-63
2022/09/29 11:53:15;;;;;;;5.80;5.13;;;14.50;99.90;;;;;;6309383;22;20833;-63
2022/09/29 11:55:58;;;;;;;5.50;5.00;;;14.70;99.90;;;;;;6309170;22;20416;-63
2022/09/29 11:58:40;;;;;;;5.40;4.90;;;15.00;99.90;;;;;;6307643;22;20426;-63
2022/09/29 12:01:21;;;;;;;5.90;4.60;;;15.10;99.90;;;;;;6308903;22;20699;-63
2022/09/29 12:04:04;;;;;;;4.70;4.30;;;15.20;99.90;;;;;;6309290;22;20845;-63
2022/09/29 12:06:51;;;;;;;8.30;5.77;;;15.30;99.90;;;;;;6309569;22;20493;-63
2022/09/29 12:09:55;;;;;;;11.60;9.50;;;15.40;99.90;;;;;;6309203;22;20478;-63
2022/09/29 12:12:30;;;;;;;6.63;6.03;;;15.30;99.90;;;;;;6253920;22;20419;-63
2022/09/29 12:15:08;;;;;;;5.23;3.63;;;15.20;99.90;;;;;;6308682;22;20402;-63
2022/09/29 12:17:42;;;;;;;5.23;4.10;;;15.10;99.90;;;;;;6309744;22;20416;-63
2022/09/29 12:20:18;;;;;;;5.57;4.60;;;15.00;99.90;;;;;;6309128;22;20420;-63
2022/09/29 12:22:49;;;;;;;9.40;7.37;;;15.00;99.90;;;;;;6309107;22;20762;-63
2022/09/29 12:25:23;;;;;;;6.37;3.70;;;15.00;99.90;;;;;;6307740;22;20436;-63
2022/09/29 12:27:55;;;;;;;5.03;4.00;;;15.00;99.90;;;;;;6308046;22;20415;-63
2022/09/29 12:30:28;;;;;;;5.60;4.00;;;15.00;99.90;;;;;;6308491;22;20473;-63
2022/09/29 12:33:03;;;;;;;6.87;3.93;;;14.80;99.90;;;;;;6306496;22;20539;-63
2022/09/29 12:35:35;;;;;;;6.13;3.30;;;14.90;99.90;;;;;;6307468;22;20760;-63
2022/09/29 12:38:14;;;;;;;5.17;4.10;;;15.00;99.90;;;;;;6308118;22;20752;-63
2022/09/29 12:40:50;;;;;;;5.60;5.10;;;14.90;99.90;;;;;;6308322;22;20718;-62
2022/09/29 12:43:29;;;;;;;7.20;4.87;;;14.90;99.90;;;;;;6307760;22;20416;-62
2022/09/29 12:46:00;;;;;;;5.53;4.60;;;14.80;99.90;;;;;;6308318;22;20671;-62
2022/09/29 12:48:46;;;;;;;5.83;3.70;;;14.80;99.90;;;;;;6306441;22;20514;-62
2022/09/29 12:51:25;;;;;;;4.77;3.60;;;14.80;99.90;;;;;;6308120;22;20416;-62
2022/09/29 12:54:05;;;;;;;4.00;3.70;;;14.70;99.90;;;;;;6307804;22;20448;-62
2022/09/29 12:56:38;;;;;;;4.63;3.40;;;14.70;99.90;;;;;;6307567;22;20424;-62
2022/09/29 12:59:11;;;;;;;4.33;3.90;;;14.70;99.90;;;;;;6305979;22;20416;-62
2022/09/29 13:01:41;;;;;;;5.20;3.70;;;14.70;99.90;;;;;;6306519;22;20896;-62
2022/09/29 13:04:53;;;;;;;3.73;3.43;;;14.60;99.90;;;;;;6307711;22;20438;-62
2022/09/29 13:07:53;;;;;;;4.97;3.87;;;14.70;99.90;;;;;;6309775;22;20477;-62
2022/09/29 13:10:41;;;;;;;4.13;3.00;;;14.80;99.90;;;;;;6270505;22;20398;-62
2022/09/29 13:13:56;;;;;;;4.50;3.80;;;14.80;99.90;;;;;;6310086;22;20444;-62